This is the latest recevied weather packets stored in our database for station/object KE5VT. If no packets are shown the sender has not sent any weather packets the latest 10 day(s).
| Time | Temp. | Humidity | Pressure | Rain* | Wind** | Luminosity | Snow |
|---|---|---|---|---|---|---|---|
| 1787772932 | 30° C | 62% | 1012.8 hPa | 0 mm | - | 118 W/m² | - |
| 1787772628 | 30.56° C | 61% | 1012.9 hPa | 0 mm | - | 113 W/m² | - |
| 1787772326 | 31.11° C | 59% | 1012.7 hPa | 0 mm | - | 155 W/m² | - |
| 1787772025 | 31.11° C | 59% | 1012.9 hPa | 0 mm | - | 329 W/m² | - |
| 1787771720 | 31.11° C | 59% | 1012.9 hPa | 0 mm | - | 228 W/m² | - |
| 1787771419 | 30.56° C | 60% | 1012.9 hPa | 0 mm | - | 443 W/m² | - |
| 1787771118 | 31.11° C | 59% | 1012.9 hPa | 0 mm | - | 556 W/m² | - |
| 1787770814 | 30.56° C | 60% | 1012.9 hPa | 0 mm | - | 199 W/m² | - |
| 1787770512 | 30.56° C | 61% | 1013.2 hPa | 0 mm | - | 370 W/m² | - |
| 1787770212 | 30.56° C | 61% | 1013.3 hPa | 0 mm | - | 183 W/m² | - |
| 1787769910 | 31.11° C | 59% | 1013.4 hPa | 0 mm | - | 116 W/m² | - |
| 1787769606 | 31.11° C | 58% | 1013.2 hPa | 0 mm | - | 189 W/m² | - |
| 1787769303 | 31.11° C | 57% | 1013.5 hPa | 0 mm | - | 161 W/m² | - |
| 1787768999 | 31.11° C | 57% | 1013.6 hPa | 0 mm | - | 622 W/m² | - |
| 1787768694 | 31.67° C | 56% | 1013.3 hPa | 0 mm | - | 580 W/m² | - |
| 1787768390 | 31.67° C | 59% | 1013.5 hPa | 0 mm | - | 586 W/m² | - |
| 1787768086 | 31.11° C | 59% | 1013.7 hPa | 0 mm | - | 600 W/m² | - |
| 1787767786 | 31.67° C | 59% | 1013.7 hPa | 0 mm | - | 456 W/m² | - |
| 1787767482 | 31.11° C | 60% | 1013.6 hPa | 0 mm | - | 553 W/m² | - |
| 1787767179 | 30° C | 62% | 1013.6 hPa | 0 mm | - | 695 W/m² | - |
| 1787766878 | 30° C | 65% | 1013.7 hPa | 0 mm | - | 412 W/m² | - |
| 1787766573 | 30.56° C | 62% | 1013.7 hPa | 0 mm | - | 160 W/m² | - |
| 1787766272 | 30.56° C | 63% | 1013.7 hPa | 0 mm | - | 688 W/m² | - |
| 1787765967 | 29.44° C | 65% | 1013.7 hPa | 0 mm | - | 718 W/m² | - |
| 1787765665 | 29.44° C | 68% | 1013.8 hPa | 0 mm | - | 711 W/m² | - |
* Rain latest hour (hover to see other rain measurements)
** Current wind speed in m/s (hover to see current wind gust speed)